sensor_id;sensor_type;location;lat;lon;timestamp;temperature;humidity
12746;DHT22;6437;53.686;10.030;2022-08-19T00:02:21;21.30;99.90
12746;DHT22;6437;53.686;10.030;2022-08-19T00:05:23;21.30;99.90
12746;DHT22;6437;53.686;10.030;2022-08-19T00:08:26;21.30;99.90
12746;DHT22;6437;53.686;10.030;2022-08-19T00:11:28;21.30;99.90
12746;DHT22;6437;53.686;10.030;2022-08-19T00:14:30;21.30;99.90
12746;DHT22;6437;53.686;10.030;2022-08-19T00:17:32;21.30;99.90
12746;DHT22;6437;53.686;10.030;2022-08-19T00:20:34;21.30;99.90
12746;DHT22;6437;53.686;10.030;2022-08-19T00:23:37;21.30;99.90
12746;DHT22;6437;53.686;10.030;2022-08-19T00:26:39;21.30;99.90
12746;DHT22;6437;53.686;10.030;2022-08-19T00:29:41;21.30;99.90
12746;DHT22;6437;53.686;10.030;2022-08-19T00:32:43;21.30;99.90
12746;DHT22;6437;53.686;10.030;2022-08-19T00:35:45;21.30;99.90
12746;DHT22;6437;53.686;10.030;2022-08-19T00:38:48;21.30;99.90
12746;DHT22;6437;53.686;10.030;2022-08-19T00:41:52;21.20;99.90
12746;DHT22;6437;53.686;10.030;2022-08-19T00:44:53;21.20;99.90
12746;DHT22;6437;53.686;10.030;2022-08-19T00:47:55;21.30;99.90
12746;DHT22;6437;53.686;10.030;2022-08-19T00:50:57;21.30;99.90
12746;DHT22;6437;53.686;10.030;2022-08-19T00:54:02;21.30;99.90
12746;DHT22;6437;53.686;10.030;2022-08-19T00:57:06;21.30;99.90
12746;DHT22;6437;53.686;10.030;2022-08-19T01:00:12;21.30;99.90
12746;DHT22;6437;53.686;10.030;2022-08-19T01:03:16;21.20;99.90
12746;DHT22;6437;53.686;10.030;2022-08-19T01:06:18;21.30;99.90
12746;DHT22;6437;53.686;10.030;2022-08-19T01:09:22;21.20;99.90
12746;DHT22;6437;53.686;10.030;2022-08-19T01:12:24;21.20;99.90
12746;DHT22;6437;53.686;10.030;2022-08-19T01:15:30;21.20;99.90
12746;DHT22;6437;53.686;10.030;2022-08-19T01:18:36;21.20;99.90
12746;DHT22;6437;53.686;10.030;2022-08-19T01:21:43;21.20;99.90
12746;DHT22;6437;53.686;10.030;2022-08-19T01:24:49;21.20;99.90
12746;DHT22;6437;53.686;10.030;2022-08-19T01:27:51;21.20;99.90
12746;DHT22;6437;53.686;10.030;2022-08-19T01:30:53;21.20;99.90
12746;DHT22;6437;53.686;10.030;2022-08-19T01:33:57;21.20;99.90
12746;DHT22;6437;53.686;10.030;2022-08-19T01:36:59;21.20;99.90
12746;DHT22;6437;53.686;10.030;2022-08-19T01:40:04;21.10;99.90
12746;DHT22;6437;53.686;10.030;2022-08-19T01:43:07;21.10;99.90
12746;DHT22;6437;53.686;10.030;2022-08-19T01:46:09;21.10;99.90
12746;DHT22;6437;53.686;10.030;2022-08-19T01:49:11;21.10;99.90
12746;DHT22;6437;53.686;10.030;2022-08-19T01:52:13;21.10;99.90
12746;DHT22;6437;53.686;10.030;2022-08-19T01:55:20;21.10;99.90
12746;DHT22;6437;53.686;10.030;2022-08-19T01:58:27;21.10;99.90
12746;DHT22;6437;53.686;10.030;2022-08-19T02:01:30;21.10;99.90
12746;DHT22;6437;53.686;10.030;2022-08-19T02:04:33;21.10;99.90
12746;DHT22;6437;53.686;10.030;2022-08-19T02:07:35;21.10;99.90
12746;DHT22;6437;53.686;10.030;2022-08-19T02:10:41;21.10;99.90
12746;DHT22;6437;53.686;10.030;2022-08-19T02:13:43;21.10;99.90
12746;DHT22;6437;53.686;10.030;2022-08-19T02:16:45;21.10;99.90
12746;DHT22;6437;53.686;10.030;2022-08-19T02:19:47;21.10;99.90
12746;DHT22;6437;53.686;10.030;2022-08-19T02:22:49;21.00;99.90
12746;DHT22;6437;53.686;10.030;2022-08-19T02:25:52;21.00;99.90
12746;DHT22;6437;53.686;10.030;2022-08-19T02:28:54;21.00;99.90
12746;DHT22;6437;53.686;10.030;2022-08-19T02:31:56;20.90;99.90
12746;DHT22;6437;53.686;10.030;2022-08-19T02:34:58;20.90;99.90
12746;DHT22;6437;53.686;10.030;2022-08-19T02:38:00;20.80;99.90
12746;DHT22;6437;53.686;10.030;2022-08-19T02:41:23;20.80;99.90
12746;DHT22;6437;53.686;10.030;2022-08-19T02:44:25;20.80;99.90
12746;DHT22;6437;53.686;10.030;2022-08-19T02:47:26;20.80;99.90
12746;DHT22;6437;53.686;10.030;2022-08-19T02:50:28;20.80;99.90
12746;DHT22;6437;53.686;10.030;2022-08-19T02:53:30;20.80;99.90
12746;DHT22;6437;53.686;10.030;2022-08-19T02:56:34;20.80;99.90
12746;DHT22;6437;53.686;10.030;2022-08-19T02:59:36;20.80;99.90
12746;DHT22;6437;53.686;10.030;2022-08-19T03:02:38;20.80;99.90
12746;DHT22;6437;53.686;10.030;2022-08-19T03:05:41;20.80;99.90
12746;DHT22;6437;53.686;10.030;2022-08-19T03:08:44;20.70;99.90
12746;DHT22;6437;53.686;10.030;2022-08-19T03:11:48;20.70;99.90
12746;DHT22;6437;53.686;10.030;2022-08-19T03:14:50;20.70;99.90
12746;DHT22;6437;53.686;10.030;2022-08-19T03:17:53;20.70;99.90
12746;DHT22;6437;53.686;10.030;2022-08-19T03:20:54;20.70;99.90
12746;DHT22;6437;53.686;10.030;2022-08-19T03:23:58;20.70;99.90
12746;DHT22;6437;53.686;10.030;2022-08-19T03:27:01;20.70;99.90
12746;DHT22;6437;53.686;10.030;2022-08-19T03:30:06;20.70;99.90
12746;DHT22;6437;53.686;10.030;2022-08-19T03:33:09;20.70;99.90
12746;DHT22;6437;53.686;10.030;2022-08-19T03:36:15;20.70;99.90
12746;DHT22;6437;53.686;10.030;2022-08-19T03:39:17;20.70;99.90
12746;DHT22;6437;53.686;10.030;2022-08-19T03:42:20;20.70;99.90
12746;DHT22;6437;53.686;10.030;2022-08-19T03:45:22;20.70;99.90
12746;DHT22;6437;53.686;10.030;2022-08-19T03:48:24;20.70;99.90
12746;DHT22;6437;53.686;10.030;2022-08-19T03:51:27;20.70;99.90
12746;DHT22;6437;53.686;10.030;2022-08-19T03:54:31;20.70;99.90
12746;DHT22;6437;53.686;10.030;2022-08-19T03:57:34;20.60;99.90
12746;DHT22;6437;53.686;10.030;2022-08-19T04:00:36;20.70;99.90
12746;DHT22;6437;53.686;10.030;2022-08-19T04:03:38;20.70;99.90
12746;DHT22;6437;53.686;10.030;2022-08-19T04:06:39;20.70;99.90
12746;DHT22;6437;53.686;10.030;2022-08-19T04:09:42;20.60;99.90
12746;DHT22;6437;53.686;10.030;2022-08-19T04:12:45;20.70;99.90
12746;DHT22;6437;53.686;10.030;2022-08-19T04:15:47;20.70;99.90
12746;DHT22;6437;53.686;10.030;2022-08-19T04:18:49;20.70;99.90
12746;DHT22;6437;53.686;10.030;2022-08-19T04:21:53;20.70;99.90
12746;DHT22;6437;53.686;10.030;2022-08-19T04:24:55;20.70;99.90
12746;DHT22;6437;53.686;10.030;2022-08-19T04:27:58;20.70;99.90
12746;DHT22;6437;53.686;10.030;2022-08-19T04:31:00;20.70;99.90
12746;DHT22;6437;53.686;10.030;2022-08-19T04:34:04;20.70;99.90
12746;DHT22;6437;53.686;10.030;2022-08-19T04:37:06;20.70;99.90
12746;DHT22;6437;53.686;10.030;2022-08-19T04:40:12;20.70;99.90
12746;DHT22;6437;53.686;10.030;2022-08-19T04:43:33;20.70;99.90
12746;DHT22;6437;53.686;10.030;2022-08-19T04:46:36;20.70;99.90
12746;DHT22;6437;53.686;10.030;2022-08-19T04:49:37;20.70;99.90
12746;DHT22;6437;53.686;10.030;2022-08-19T04:52:39;20.70;99.90
12746;DHT22;6437;53.686;10.030;2022-08-19T04:55:43;20.70;99.90
12746;DHT22;6437;53.686;10.030;2022-08-19T04:58:47;20.60;99.90
12746;DHT22;6437;53.686;10.030;2022-08-19T05:01:49;20.60;99.90
12746;DHT22;6437;53.686;10.030;2022-08-19T05:04:51;20.70;99.90
12746;DHT22;6437;53.686;10.030;2022-08-19T05:07:52;20.60;99.90
12746;DHT22;6437;53.686;10.030;2022-08-19T05:10:56;20.70;99.90
12746;DHT22;6437;53.686;10.030;2022-08-19T05:13:59;20.70;99.90
12746;DHT22;6437;53.686;10.030;2022-08-19T05:17:01;20.70;99.90
12746;DHT22;6437;53.686;10.030;2022-08-19T05:20:03;20.70;99.90
12746;DHT22;6437;53.686;10.030;2022-08-19T05:23:34;20.70;99.90
12746;DHT22;6437;53.686;10.030;2022-08-19T05:26:36;20.70;99.90
12746;DHT22;6437;53.686;10.030;2022-08-19T05:29:40;20.70;99.90
12746;DHT22;6437;53.686;10.030;2022-08-19T05:32:42;20.70;99.90
12746;DHT22;6437;53.686;10.030;2022-08-19T05:35:44;21.00;99.90
12746;DHT22;6437;53.686;10.030;2022-08-19T05:38:46;20.80;99.90
12746;DHT22;6437;53.686;10.030;2022-08-19T05:41:53;20.70;99.90
12746;DHT22;6437;53.686;10.030;2022-08-19T05:44:59;20.80;99.90
12746;DHT22;6437;53.686;10.030;2022-08-19T05:48:01;20.70;99.90
12746;DHT22;6437;53.686;10.030;2022-08-19T05:51:04;20.70;99.90
12746;DHT22;6437;53.686;10.030;2022-08-19T05:54:08;20.80;99.90
12746;DHT22;6437;53.686;10.030;2022-08-19T05:57:11;20.80;99.90
12746;DHT22;6437;53.686;10.030;2022-08-19T06:00:15;20.70;99.90
12746;DHT22;6437;53.686;10.030;2022-08-19T06:03:17;20.80;99.90
12746;DHT22;6437;53.686;10.030;2022-08-19T06:06:19;20.80;99.90
12746;DHT22;6437;53.686;10.030;2022-08-19T06:09:22;20.70;99.90
12746;DHT22;6437;53.686;10.030;2022-08-19T06:12:24;20.80;99.90
12746;DHT22;6437;53.686;10.030;2022-08-19T06:15:30;20.80;99.90
12746;DHT22;6437;53.686;10.030;2022-08-19T06:18:32;20.80;99.90
12746;DHT22;6437;53.686;10.030;2022-08-19T06:21:35;20.70;99.90
12746;DHT22;6437;53.686;10.030;2022-08-19T06:24:38;20.70;99.90
12746;DHT22;6437;53.686;10.030;2022-08-19T06:27:40;20.70;99.90
12746;DHT22;6437;53.686;10.030;2022-08-19T06:30:44;20.70;99.90
12746;DHT22;6437;53.686;10.030;2022-08-19T06:33:46;20.70;99.90
12746;DHT22;6437;53.686;10.030;2022-08-19T06:36:50;20.70;99.90
12746;DHT22;6437;53.686;10.030;2022-08-19T06:39:53;20.70;99.90
12746;DHT22;6437;53.686;10.030;2022-08-19T06:42:55;20.70;99.90
12746;DHT22;6437;53.686;10.030;2022-08-19T06:46:00;20.70;99.90
12746;DHT22;6437;53.686;10.030;2022-08-19T06:49:04;20.70;99.90
12746;DHT22;6437;53.686;10.030;2022-08-19T06:52:07;20.70;99.90
12746;DHT22;6437;53.686;10.030;2022-08-19T06:55:12;20.70;99.90
12746;DHT22;6437;53.686;10.030;2022-08-19T06:58:13;20.70;99.90
12746;DHT22;6437;53.686;10.030;2022-08-19T07:01:17;20.80;99.90
12746;DHT22;6437;53.686;10.030;2022-08-19T07:04:21;20.80;99.90
12746;DHT22;6437;53.686;10.030;2022-08-19T07:07:23;20.80;99.90
12746;DHT22;6437;53.686;10.030;2022-08-19T07:10:25;20.80;99.90
12746;DHT22;6437;53.686;10.030;2022-08-19T07:13:27;20.80;99.90
12746;DHT22;6437;53.686;10.030;2022-08-19T07:16:30;20.80;99.90
12746;DHT22;6437;53.686;10.030;2022-08-19T07:19:32;20.80;99.90
12746;DHT22;6437;53.686;10.030;2022-08-19T07:22:34;20.80;99.90
12746;DHT22;6437;53.686;10.030;2022-08-19T07:25:36;20.80;99.90
12746;DHT22;6437;53.686;10.030;2022-08-19T07:28:38;20.80;99.90
12746;DHT22;6437;53.686;10.030;2022-08-19T07:31:42;20.80;99.90
12746;DHT22;6437;53.686;10.030;2022-08-19T07:34:43;20.80;99.90
12746;DHT22;6437;53.686;10.030;2022-08-19T07:37:46;20.80;99.90
12746;DHT22;6437;53.686;10.030;2022-08-19T07:40:47;20.80;99.90
12746;DHT22;6437;53.686;10.030;2022-08-19T07:43:52;20.80;99.90
12746;DHT22;6437;53.686;10.030;2022-08-19T07:46:56;20.80;99.90
12746;DHT22;6437;53.686;10.030;2022-08-19T07:50:00;20.90;99.90
12746;DHT22;6437;53.686;10.030;2022-08-19T07:53:04;20.80;99.90
12746;DHT22;6437;53.686;10.030;2022-08-19T07:56:06;20.80;99.90
12746;DHT22;6437;53.686;10.030;2022-08-19T07:59:08;20.80;99.90
12746;DHT22;6437;53.686;10.030;2022-08-19T08:02:12;20.80;99.90
12746;DHT22;6437;53.686;10.030;2022-08-19T08:05:14;20.90;99.90
12746;DHT22;6437;53.686;10.030;2022-08-19T08:08:33;20.90;99.90
12746;DHT22;6437;53.686;10.030;2022-08-19T08:11:55;20.90;99.90
12746;DHT22;6437;53.686;10.030;2022-08-19T08:15:00;20.90;99.90
12746;DHT22;6437;53.686;10.030;2022-08-19T08:18:04;20.90;99.90
12746;DHT22;6437;53.686;10.030;2022-08-19T08:21:06;20.90;99.90
12746;DHT22;6437;53.686;10.030;2022-08-19T08:24:09;20.90;99.90
12746;DHT22;6437;53.686;10.030;2022-08-19T08:27:10;20.90;99.90
12746;DHT22;6437;53.686;10.030;2022-08-19T08:30:14;20.90;99.90
12746;DHT22;6437;53.686;10.030;2022-08-19T08:33:19;20.90;99.90
12746;DHT22;6437;53.686;10.030;2022-08-19T08:36:21;20.90;99.90
12746;DHT22;6437;53.686;10.030;2022-08-19T08:39:25;21.00;99.90
12746;DHT22;6437;53.686;10.030;2022-08-19T08:42:29;21.00;99.90
12746;DHT22;6437;53.686;10.030;2022-08-19T08:45:35;21.00;99.90
12746;DHT22;6437;53.686;10.030;2022-08-19T08:48:46;20.90;99.90
12746;DHT22;6437;53.686;10.030;2022-08-19T08:51:52;20.90;99.90
12746;DHT22;6437;53.686;10.030;2022-08-19T08:54:59;20.90;99.90
12746;DHT22;6437;53.686;10.030;2022-08-19T08:58:04;21.00;99.90
12746;DHT22;6437;53.686;10.030;2022-08-19T09:01:09;21.00;99.90
12746;DHT22;6437;53.686;10.030;2022-08-19T09:04:13;21.00;99.90
12746;DHT22;6437;53.686;10.030;2022-08-19T09:07:26;21.00;99.90
12746;DHT22;6437;53.686;10.030;2022-08-19T09:10:37;21.10;99.90
12746;DHT22;6437;53.686;10.030;2022-08-19T09:13:44;21.10;99.90
12746;DHT22;6437;53.686;10.030;2022-08-19T09:16:50;21.10;99.90
12746;DHT22;6437;53.686;10.030;2022-08-19T09:19:55;21.10;99.90
12746;DHT22;6437;53.686;10.030;2022-08-19T09:22:58;21.10;99.90
12746;DHT22;6437;53.686;10.030;2022-08-19T09:26:00;21.10;99.90
12746;DHT22;6437;53.686;10.030;2022-08-19T09:29:01;21.20;99.90
12746;DHT22;6437;53.686;10.030;2022-08-19T09:32:05;21.10;99.90
12746;DHT22;6437;53.686;10.030;2022-08-19T09:35:09;21.20;99.90
12746;DHT22;6437;53.686;10.030;2022-08-19T09:38:11;21.20;99.90
12746;DHT22;6437;53.686;10.030;2022-08-19T09:41:15;21.20;99.90
12746;DHT22;6437;53.686;10.030;2022-08-19T09:44:18;21.20;99.90
12746;DHT22;6437;53.686;10.030;2022-08-19T09:47:20;21.30;99.90
12746;DHT22;6437;53.686;10.030;2022-08-19T09:50:24;21.30;99.90
12746;DHT22;6437;53.686;10.030;2022-08-19T09:53:26;21.30;99.90
12746;DHT22;6437;53.686;10.030;2022-08-19T09:56:29;21.30;99.90
12746;DHT22;6437;53.686;10.030;2022-08-19T09:59:31;21.30;99.90
12746;DHT22;6437;53.686;10.030;2022-08-19T10:02:33;21.20;99.90
12746;DHT22;6437;53.686;10.030;2022-08-19T10:05:36;21.30;99.90
12746;DHT22;6437;53.686;10.030;2022-08-19T10:08:51;21.30;99.90
12746;DHT22;6437;53.686;10.030;2022-08-19T10:11:53;21.30;99.90
12746;DHT22;6437;53.686;10.030;2022-08-19T10:14:55;21.00;99.90
12746;DHT22;6437;53.686;10.030;2022-08-19T10:17:56;21.40;99.90
12746;DHT22;6437;53.686;10.030;2022-08-19T10:21:07;21.40;99.90
12746;DHT22;6437;53.686;10.030;2022-08-19T10:24:09;21.50;99.90
12746;DHT22;6437;53.686;10.030;2022-08-19T10:27:11;21.50;99.90
12746;DHT22;6437;53.686;10.030;2022-08-19T10:30:14;21.50;99.90
12746;DHT22;6437;53.686;10.030;2022-08-19T10:33:16;21.60;99.90
12746;DHT22;6437;53.686;10.030;2022-08-19T10:36:21;21.60;99.90
12746;DHT22;6437;53.686;10.030;2022-08-19T10:39:23;21.60;99.90
12746;DHT22;6437;53.686;10.030;2022-08-19T10:42:25;21.60;99.90
12746;DHT22;6437;53.686;10.030;2022-08-19T10:45:27;21.60;99.90
12746;DHT22;6437;53.686;10.030;2022-08-19T10:48:29;21.60;99.90
12746;DHT22;6437;53.686;10.030;2022-08-19T10:51:32;21.70;99.90
12746;DHT22;6437;53.686;10.030;2022-08-19T10:54:52;21.60;99.90
12746;DHT22;6437;53.686;10.030;2022-08-19T10:58:14;21.60;99.90
12746;DHT22;6437;53.686;10.030;2022-08-19T11:01:16;21.60;99.90
12746;DHT22;6437;53.686;10.030;2022-08-19T11:04:19;21.60;99.90
12746;DHT22;6437;53.686;10.030;2022-08-19T11:07:22;21.60;99.90
12746;DHT22;6437;53.686;10.030;2022-08-19T11:10:25;21.40;99.90
12746;DHT22;6437;53.686;10.030;2022-08-19T11:13:27;21.60;99.90
12746;DHT22;6437;53.686;10.030;2022-08-19T11:16:29;21.60;99.90
12746;DHT22;6437;53.686;10.030;2022-08-19T11:19:32;21.60;99.90
12746;DHT22;6437;53.686;10.030;2022-08-19T11:22:35;21.70;99.90
12746;DHT22;6437;53.686;10.030;2022-08-19T11:25:38;21.70;99.90
12746;DHT22;6437;53.686;10.030;2022-08-19T11:28:40;21.70;99.90
12746;DHT22;6437;53.686;10.030;2022-08-19T11:31:45;21.70;99.90
12746;DHT22;6437;53.686;10.030;2022-08-19T11:34:47;21.80;99.90
12746;DHT22;6437;53.686;10.030;2022-08-19T11:37:50;21.80;99.90
12746;DHT22;6437;53.686;10.030;2022-08-19T11:40:55;21.80;99.90
12746;DHT22;6437;53.686;10.030;2022-08-19T11:43:57;21.90;99.90
12746;DHT22;6437;53.686;10.030;2022-08-19T11:46:58;21.90;99.90
12746;DHT22;6437;53.686;10.030;2022-08-19T11:50:01;21.90;99.90
12746;DHT22;6437;53.686;10.030;2022-08-19T11:53:04;22.00;99.90
12746;DHT22;6437;53.686;10.030;2022-08-19T11:56:07;22.00;99.90
12746;DHT22;6437;53.686;10.030;2022-08-19T11:59:09;22.10;99.90
12746;DHT22;6437;53.686;10.030;2022-08-19T12:02:11;22.10;99.90
12746;DHT22;6437;53.686;10.030;2022-08-19T12:05:14;22.10;99.90
12746;DHT22;6437;53.686;10.030;2022-08-19T12:08:17;22.20;99.90
12746;DHT22;6437;53.686;10.030;2022-08-19T12:11:20;22.20;99.90
12746;DHT22;6437;53.686;10.030;2022-08-19T12:14:22;22.20;99.90
12746;DHT22;6437;53.686;10.030;2022-08-19T12:17:25;22.20;99.90
12746;DHT22;6437;53.686;10.030;2022-08-19T12:20:28;22.20;99.90
12746;DHT22;6437;53.686;10.030;2022-08-19T12:23:31;22.20;99.90
12746;DHT22;6437;53.686;10.030;2022-08-19T12:26:32;22.30;99.90
12746;DHT22;6437;53.686;10.030;2022-08-19T12:29:34;22.20;99.90
12746;DHT22;6437;53.686;10.030;2022-08-19T12:32:37;22.20;99.90
12746;DHT22;6437;53.686;10.030;2022-08-19T12:35:40;22.20;99.90
12746;DHT22;6437;53.686;10.030;2022-08-19T12:38:44;22.20;99.90
12746;DHT22;6437;53.686;10.030;2022-08-19T12:41:47;22.20;99.90
12746;DHT22;6437;53.686;10.030;2022-08-19T12:44:49;22.30;99.90
12746;DHT22;6437;53.686;10.030;2022-08-19T12:47:52;22.30;99.90
12746;DHT22;6437;53.686;10.030;2022-08-19T12:50:54;22.30;99.90
12746;DHT22;6437;53.686;10.030;2022-08-19T12:53:57;22.40;99.90
12746;DHT22;6437;53.686;10.030;2022-08-19T12:56:59;22.40;99.90
12746;DHT22;6437;53.686;10.030;2022-08-19T13:00:05;22.40;99.90
12746;DHT22;6437;53.686;10.030;2022-08-19T13:03:10;22.50;99.90
12746;DHT22;6437;53.686;10.030;2022-08-19T13:06:11;22.50;99.90
12746;DHT22;6437;53.686;10.030;2022-08-19T13:09:15;22.60;99.90
12746;DHT22;6437;53.686;10.030;2022-08-19T13:12:17;22.60;99.90
12746;DHT22;6437;53.686;10.030;2022-08-19T13:15:22;22.70;99.90
12746;DHT22;6437;53.686;10.030;2022-08-19T13:18:24;22.70;99.90
12746;DHT22;6437;53.686;10.030;2022-08-19T13:21:26;22.70;99.90
12746;DHT22;6437;53.686;10.030;2022-08-19T13:24:31;22.70;99.90
12746;DHT22;6437;53.686;10.030;2022-08-19T13:27:33;22.80;99.90
12746;DHT22;6437;53.686;10.030;2022-08-19T13:30:35;22.80;99.90
12746;DHT22;6437;53.686;10.030;2022-08-19T13:33:55;22.80;99.90
12746;DHT22;6437;53.686;10.030;2022-08-19T13:36:57;22.80;99.90
12746;DHT22;6437;53.686;10.030;2022-08-19T13:40:00;22.80;99.90
12746;DHT22;6437;53.686;10.030;2022-08-19T13:43:02;22.80;99.90
12746;DHT22;6437;53.686;10.030;2022-08-19T13:46:09;22.80;99.90
12746;DHT22;6437;53.686;10.030;2022-08-19T13:49:15;22.80;99.90
12746;DHT22;6437;53.686;10.030;2022-08-19T13:52:16;22.80;99.90
12746;DHT22;6437;53.686;10.030;2022-08-19T13:55:20;22.90;99.90
12746;DHT22;6437;53.686;10.030;2022-08-19T13:58:22;22.80;99.90
12746;DHT22;6437;53.686;10.030;2022-08-19T14:01:24;22.90;99.90
12746;DHT22;6437;53.686;10.030;2022-08-19T14:04:27;23.00;99.90
12746;DHT22;6437;53.686;10.030;2022-08-19T14:07:29;22.90;99.90
12746;DHT22;6437;53.686;10.030;2022-08-19T14:10:32;22.90;99.90
12746;DHT22;6437;53.686;10.030;2022-08-19T14:13:34;22.90;99.90
12746;DHT22;6437;53.686;10.030;2022-08-19T14:16:36;22.90;99.90
12746;DHT22;6437;53.686;10.030;2022-08-19T14:19:38;23.00;99.90
12746;DHT22;6437;53.686;10.030;2022-08-19T14:22:41;23.00;99.90
12746;DHT22;6437;53.686;10.030;2022-08-19T14:25:44;23.00;99.90
12746;DHT22;6437;53.686;10.030;2022-08-19T14:28:47;23.00;99.90
12746;DHT22;6437;53.686;10.030;2022-08-19T14:31:49;23.00;99.90
12746;DHT22;6437;53.686;10.030;2022-08-19T14:34:51;23.00;99.90
12746;DHT22;6437;53.686;10.030;2022-08-19T14:37:54;23.00;99.90
12746;DHT22;6437;53.686;10.030;2022-08-19T14:41:06;23.00;99.90
12746;DHT22;6437;53.686;10.030;2022-08-19T14:44:08;23.00;99.90
12746;DHT22;6437;53.686;10.030;2022-08-19T14:47:12;23.00;99.90
12746;DHT22;6437;53.686;10.030;2022-08-19T14:50:14;23.00;99.90
12746;DHT22;6437;53.686;10.030;2022-08-19T14:53:16;23.00;99.90
12746;DHT22;6437;53.686;10.030;2022-08-19T14:56:22;23.00;99.90
12746;DHT22;6437;53.686;10.030;2022-08-19T14:59:24;23.00;99.90
12746;DHT22;6437;53.686;10.030;2022-08-19T15:02:26;22.80;99.90
12746;DHT22;6437;53.686;10.030;2022-08-19T15:05:28;23.00;99.90
12746;DHT22;6437;53.686;10.030;2022-08-19T15:08:32;23.00;99.90
12746;DHT22;6437;53.686;10.030;2022-08-19T15:11:36;23.00;99.90
12746;DHT22;6437;53.686;10.030;2022-08-19T15:14:38;23.00;99.90
12746;DHT22;6437;53.686;10.030;2022-08-19T15:17:43;23.00;99.90
12746;DHT22;6437;53.686;10.030;2022-08-19T15:20:45;23.00;99.90
12746;DHT22;6437;53.686;10.030;2022-08-19T15:23:48;23.10;99.90
12746;DHT22;6437;53.686;10.030;2022-08-19T15:26:52;23.00;99.90
12746;DHT22;6437;53.686;10.030;2022-08-19T15:29:53;23.10;99.90
12746;DHT22;6437;53.686;10.030;2022-08-19T15:32:57;23.00;99.90
12746;DHT22;6437;53.686;10.030;2022-08-19T15:35:59;23.10;99.90
12746;DHT22;6437;53.686;10.030;2022-08-19T15:39:02;23.10;99.90
12746;DHT22;6437;53.686;10.030;2022-08-19T15:42:06;23.10;99.90
12746;DHT22;6437;53.686;10.030;2022-08-19T15:45:09;23.10;99.90
12746;DHT22;6437;53.686;10.030;2022-08-19T15:48:12;23.20;99.90
12746;DHT22;6437;53.686;10.030;2022-08-19T15:51:14;23.20;99.90
12746;DHT22;6437;53.686;10.030;2022-08-19T15:54:18;23.00;99.90
12746;DHT22;6437;53.686;10.030;2022-08-19T15:57:22;23.30;99.90
12746;DHT22;6437;53.686;10.030;2022-08-19T16:00:41;23.30;99.90
12746;DHT22;6437;53.686;10.030;2022-08-19T16:04:00;23.30;99.90
12746;DHT22;6437;53.686;10.030;2022-08-19T16:07:20;23.30;99.90
12746;DHT22;6437;53.686;10.030;2022-08-19T16:10:22;23.30;99.90
12746;DHT22;6437;53.686;10.030;2022-08-19T16:13:25;23.40;99.90
12746;DHT22;6437;53.686;10.030;2022-08-19T16:16:27;23.30;99.90
12746;DHT22;6437;53.686;10.030;2022-08-19T16:19:30;23.30;99.90
12746;DHT22;6437;53.686;10.030;2022-08-19T16:22:33;23.30;99.90
12746;DHT22;6437;53.686;10.030;2022-08-19T16:25:35;23.30;99.90
12746;DHT22;6437;53.686;10.030;2022-08-19T16:28:39;23.30;99.90
12746;DHT22;6437;53.686;10.030;2022-08-19T16:31:42;23.30;99.90
12746;DHT22;6437;53.686;10.030;2022-08-19T16:34:45;23.30;99.90
12746;DHT22;6437;53.686;10.030;2022-08-19T16:37:47;23.30;99.90
12746;DHT22;6437;53.686;10.030;2022-08-19T16:40:49;23.30;99.90
12746;DHT22;6437;53.686;10.030;2022-08-19T16:43:55;23.30;99.90
12746;DHT22;6437;53.686;10.030;2022-08-19T16:46:57;23.30;99.90
12746;DHT22;6437;53.686;10.030;2022-08-19T16:49:59;23.30;99.90
12746;DHT22;6437;53.686;10.030;2022-08-19T16:53:00;23.20;99.90
12746;DHT22;6437;53.686;10.030;2022-08-19T16:56:03;23.30;99.90
12746;DHT22;6437;53.686;10.030;2022-08-19T16:59:06;23.30;99.90
12746;DHT22;6437;53.686;10.030;2022-08-19T17:02:08;23.30;99.90
12746;DHT22;6437;53.686;10.030;2022-08-19T17:05:09;23.30;99.90
12746;DHT22;6437;53.686;10.030;2022-08-19T17:08:11;23.30;99.90
12746;DHT22;6437;53.686;10.030;2022-08-19T17:11:13;23.20;99.90
12746;DHT22;6437;53.686;10.030;2022-08-19T17:14:16;23.30;99.90
12746;DHT22;6437;53.686;10.030;2022-08-19T17:17:19;23.20;99.90
12746;DHT22;6437;53.686;10.030;2022-08-19T17:20:21;23.30;99.90
12746;DHT22;6437;53.686;10.030;2022-08-19T17:23:23;23.20;99.90
12746;DHT22;6437;53.686;10.030;2022-08-19T17:26:25;23.20;99.90
12746;DHT22;6437;53.686;10.030;2022-08-19T17:29:28;23.30;99.90
12746;DHT22;6437;53.686;10.030;2022-08-19T17:32:30;23.20;99.90
12746;DHT22;6437;53.686;10.030;2022-08-19T17:35:35;23.20;99.90
12746;DHT22;6437;53.686;10.030;2022-08-19T17:38:36;23.10;99.90
12746;DHT22;6437;53.686;10.030;2022-08-19T17:41:38;23.10;99.90
12746;DHT22;6437;53.686;10.030;2022-08-19T17:44:41;23.10;99.90
12746;DHT22;6437;53.686;10.030;2022-08-19T17:47:43;23.10;99.90
12746;DHT22;6437;53.686;10.030;2022-08-19T17:50:45;23.10;99.90
12746;DHT22;6437;53.686;10.030;2022-08-19T17:53:48;23.10;99.90
12746;DHT22;6437;53.686;10.030;2022-08-19T17:56:50;23.10;99.90
12746;DHT22;6437;53.686;10.030;2022-08-19T17:59:54;23.10;99.90
12746;DHT22;6437;53.686;10.030;2022-08-19T18:02:59;23.10;99.90
12746;DHT22;6437;53.686;10.030;2022-08-19T18:06:02;23.00;99.90
12746;DHT22;6437;53.686;10.030;2022-08-19T18:09:05;23.00;99.90
12746;DHT22;6437;53.686;10.030;2022-08-19T18:12:08;23.00;99.90
12746;DHT22;6437;53.686;10.030;2022-08-19T18:15:11;23.00;99.90
12746;DHT22;6437;53.686;10.030;2022-08-19T18:18:14;22.90;99.90
12746;DHT22;6437;53.686;10.030;2022-08-19T18:21:16;22.80;99.90
12746;DHT22;6437;53.686;10.030;2022-08-19T18:24:18;22.80;99.90
12746;DHT22;6437;53.686;10.030;2022-08-19T18:27:20;22.80;99.90
12746;DHT22;6437;53.686;10.030;2022-08-19T18:30:23;22.80;99.90
12746;DHT22;6437;53.686;10.030;2022-08-19T18:33:26;22.80;99.90
12746;DHT22;6437;53.686;10.030;2022-08-19T18:36:27;22.80;99.90
12746;DHT22;6437;53.686;10.030;2022-08-19T18:39:29;22.70;99.90
12746;DHT22;6437;53.686;10.030;2022-08-19T18:42:57;22.70;99.90
12746;DHT22;6437;53.686;10.030;2022-08-19T18:46:20;22.70;99.90
12746;DHT22;6437;53.686;10.030;2022-08-19T18:49:39;22.60;99.90
12746;DHT22;6437;53.686;10.030;2022-08-19T18:52:41;22.60;99.90
12746;DHT22;6437;53.686;10.030;2022-08-19T18:55:43;22.60;99.90
12746;DHT22;6437;53.686;10.030;2022-08-19T18:58:46;22.50;99.90
12746;DHT22;6437;53.686;10.030;2022-08-19T19:01:53;22.50;99.90
12746;DHT22;6437;53.686;10.030;2022-08-19T19:04:56;22.50;99.90
12746;DHT22;6437;53.686;10.030;2022-08-19T19:07:58;22.50;99.90
12746;DHT22;6437;53.686;10.030;2022-08-19T19:11:00;22.40;99.90
12746;DHT22;6437;53.686;10.030;2022-08-19T19:14:06;22.40;99.90
12746;DHT22;6437;53.686;10.030;2022-08-19T19:17:13;22.30;99.90
12746;DHT22;6437;53.686;10.030;2022-08-19T19:20:15;22.30;99.90